createdAt,value
2023-05-11T00:00:02.071Z,0.71
2023-05-11T00:01:02.105Z,0.69
2023-05-11T00:02:02.228Z,0.69
2023-05-11T00:03:02.382Z,0.69
2023-05-11T00:04:02.406Z,0.72
2023-05-11T00:05:02.364Z,0.69
2023-05-11T00:06:02.341Z,0.70
2023-05-11T00:07:02.436Z,0.72
2023-05-11T00:08:02.474Z,0.70
2023-05-11T00:09:02.508Z,0.70
2023-05-11T00:10:02.578Z,0.70
2023-05-11T00:11:02.613Z,0.70
2023-05-11T00:12:02.670Z,0.69
2023-05-11T00:13:02.735Z,0.71
2023-05-11T00:14:02.787Z,0.70
2023-05-11T00:15:02.831Z,0.69
2023-05-11T00:16:02.896Z,0.70
2023-05-11T00:17:02.890Z,0.70
2023-05-11T00:18:03.028Z,0.71
2023-05-11T00:19:03.176Z,0.70
2023-05-11T00:20:03.043Z,0.69
2023-05-11T00:21:03.095Z,0.71
2023-05-11T00:22:03.153Z,0.69
2023-05-11T00:23:03.355Z,0.70
2023-05-11T00:24:03.273Z,0.68
2023-05-11T00:25:03.296Z,0.68
2023-05-11T00:26:03.376Z,0.71
2023-05-11T00:27:03.420Z,0.69
2023-05-11T00:28:03.451Z,0.70
2023-05-11T00:29:03.479Z,0.69
2023-05-11T00:30:03.572Z,0.68
2023-05-11T00:31:03.650Z,0.69
2023-05-11T00:32:03.652Z,0.68
2023-05-11T00:33:03.739Z,0.67
2023-05-11T00:34:03.824Z,0.69
2023-05-11T00:35:03.821Z,0.70
2023-05-11T00:36:03.846Z,0.67
2023-05-11T00:37:03.879Z,0.69
2023-05-11T00:38:03.965Z,0.69
2023-05-11T00:39:04.002Z,0.68
2023-05-11T00:40:04.076Z,0.67
2023-05-11T00:41:04.107Z,0.69
2023-05-11T00:42:04.124Z,0.68
2023-05-11T00:43:04.213Z,0.68
2023-05-11T00:44:04.307Z,0.67
2023-05-11T00:45:04.291Z,0.68
2023-05-11T00:46:04.383Z,0.66
2023-05-11T00:47:04.534Z,0.67
2023-05-11T00:48:04.541Z,0.69
2023-05-11T00:49:04.484Z,0.69
2023-05-11T00:50:04.566Z,0.67
2023-05-11T00:51:04.589Z,0.68
2023-05-11T00:52:04.640Z,0.67
2023-05-11T00:53:04.694Z,0.68
2023-05-11T00:54:04.771Z,0.67
2023-05-11T00:55:04.827Z,0.67
2023-05-11T00:56:04.868Z,0.66
2023-05-11T00:57:04.919Z,0.67
2023-05-11T00:58:04.960Z,0.67
2023-05-11T00:59:05.024Z,0.67
2023-05-11T01:00:05.043Z,0.66
2023-05-11T01:01:05.141Z,0.67
2023-05-11T01:02:05.239Z,0.67
2023-05-11T01:03:05.284Z,0.66
2023-05-11T01:04:05.307Z,0.68
2023-05-11T01:05:05.310Z,0.66
2023-05-11T01:06:05.458Z,0.65
2023-05-11T01:07:05.437Z,0.66
2023-05-11T01:08:05.533Z,0.67
2023-05-11T01:09:05.876Z,0.66
2023-05-11T01:10:05.585Z,0.66
2023-05-11T01:11:05.675Z,0.65
2023-05-11T01:12:05.712Z,0.67
2023-05-11T01:13:05.762Z,0.67
2023-05-11T01:14:05.822Z,0.66
2023-05-11T01:15:05.862Z,0.66
2023-05-11T01:16:06.006Z,0.65
2023-05-11T01:17:05.966Z,0.65
2023-05-11T01:18:06.118Z,0.64
2023-05-11T01:19:06.143Z,0.65
2023-05-11T01:20:06.120Z,0.64
2023-05-11T01:21:06.223Z,0.63
2023-05-11T01:22:06.266Z,0.65
2023-05-11T01:23:06.300Z,0.64
2023-05-11T01:24:06.366Z,0.65
2023-05-11T01:25:06.444Z,0.64
2023-05-11T01:26:06.461Z,0.65
2023-05-11T01:27:06.550Z,0.64
2023-05-11T01:28:06.699Z,0.65
2023-05-11T01:29:06.653Z,0.63
2023-05-11T01:30:06.730Z,0.64
2023-05-11T01:31:06.751Z,0.65
2023-05-11T01:32:06.957Z,0.63
2023-05-11T01:33:06.927Z,0.64
2023-05-11T01:34:06.958Z,0.64
2023-05-11T01:35:06.985Z,0.64
2023-05-11T01:36:07.033Z,0.63
2023-05-11T01:37:07.101Z,0.64
2023-05-11T01:38:07.165Z,0.64
2023-05-11T01:39:07.281Z,0.64
2023-05-11T01:40:07.304Z,0.63
2023-05-11T01:41:07.333Z,0.63
2023-05-11T01:42:07.377Z,0.65
2023-05-11T01:43:07.509Z,0.64
2023-05-11T01:44:07.481Z,0.64
2023-05-11T01:45:07.904Z,0.63
2023-05-11T01:46:07.701Z,0.64
2023-05-11T01:47:07.685Z,0.64
2023-05-11T01:48:07.827Z,0.64
2023-05-11T01:49:07.830Z,0.64
2023-05-11T01:50:08.397Z,0.65
2023-05-11T01:51:07.938Z,0.63
2023-05-11T01:52:07.986Z,0.62
2023-05-11T01:53:08.048Z,0.63
2023-05-11T01:54:08.095Z,0.63
2023-05-11T01:55:08.400Z,0.62
2023-05-11T01:56:08.258Z,0.64
2023-05-11T01:57:08.316Z,0.64
2023-05-11T01:58:08.355Z,0.62
2023-05-11T01:59:08.436Z,0.62
2023-05-11T02:00:08.880Z,0.63
2023-05-11T02:01:08.568Z,0.61
2023-05-11T02:02:08.615Z,0.61
2023-05-11T02:03:08.821Z,0.62
2023-05-11T02:04:08.702Z,0.63
2023-05-11T02:05:08.783Z,0.60
2023-05-11T02:06:08.848Z,0.62
2023-05-11T02:07:08.875Z,0.62
2023-05-11T02:08:08.925Z,0.62
2023-05-11T02:09:09.026Z,0.59
2023-05-11T02:10:09.080Z,0.60
2023-05-11T02:11:09.206Z,0.63
2023-05-11T02:12:09.211Z,0.62
2023-05-11T02:13:09.264Z,0.62
2023-05-11T02:14:09.343Z,0.60
2023-05-11T02:15:09.401Z,0.61
2023-05-11T02:16:09.472Z,0.61
2023-05-11T02:17:09.504Z,0.61
2023-05-11T02:18:09.624Z,0.62
2023-05-11T02:19:09.734Z,0.61
2023-05-11T02:20:09.729Z,0.61
2023-05-11T02:21:09.789Z,0.59
2023-05-11T02:22:09.855Z,0.60
2023-05-11T02:23:09.896Z,0.61
2023-05-11T02:24:09.966Z,0.60
2023-05-11T02:25:10.057Z,0.60
2023-05-11T02:26:10.111Z,0.61
2023-05-11T02:27:10.154Z,0.60
2023-05-11T02:28:10.232Z,0.60
2023-05-11T02:29:10.253Z,0.58
2023-05-11T02:30:10.408Z,0.61
2023-05-11T02:31:10.412Z,0.60
2023-05-11T02:32:10.472Z,0.59
2023-05-11T02:33:10.594Z,0.59
2023-05-11T02:34:10.619Z,0.61
2023-05-11T02:35:10.887Z,0.60
2023-05-11T02:36:10.717Z,0.59
2023-05-11T02:37:10.799Z,0.60
2023-05-11T02:38:10.838Z,0.61
2023-05-11T02:39:10.926Z,0.60
2023-05-11T02:40:10.984Z,0.61
2023-05-11T02:41:11.032Z,0.59
2023-05-11T02:42:11.108Z,0.58
2023-05-11T02:43:11.177Z,0.59
2023-05-11T02:44:11.226Z,0.59
2023-05-11T02:45:11.292Z,0.60
2023-05-11T02:46:11.361Z,0.59
2023-05-11T02:47:11.442Z,0.59
2023-05-11T02:48:11.527Z,0.58
2023-05-11T02:49:11.562Z,0.59
2023-05-11T02:50:11.650Z,0.58
2023-05-11T02:51:11.696Z,0.59
2023-05-11T02:52:11.775Z,0.58
2023-05-11T02:53:11.797Z,0.58
2023-05-11T02:54:11.885Z,0.58
2023-05-11T02:55:12.032Z,0.57
2023-05-11T02:56:12.031Z,0.58
2023-05-11T02:57:12.063Z,0.59
2023-05-11T02:58:12.167Z,0.58
2023-05-11T02:59:12.215Z,0.59
2023-05-11T03:00:12.279Z,0.58
2023-05-11T03:01:12.376Z,0.58
2023-05-11T03:02:12.455Z,0.57
2023-05-11T03:03:12.516Z,0.58
2023-05-11T03:04:12.488Z,0.58
2023-05-11T03:05:12.584Z,0.57
2023-05-11T03:06:12.651Z,0.57
2023-05-11T03:07:12.706Z,0.58
2023-05-11T03:08:12.721Z,0.58
2023-05-11T03:09:12.793Z,0.58
2023-05-11T03:10:12.881Z,0.57
2023-05-11T03:11:12.931Z,0.56
2023-05-11T03:12:13.008Z,0.58
2023-05-11T03:13:13.059Z,0.57
2023-05-11T03:14:13.140Z,0.57
2023-05-11T03:15:13.181Z,0.58
2023-05-11T03:16:13.320Z,0.56
2023-05-11T03:17:13.347Z,0.56
2023-05-11T03:18:13.386Z,0.57
2023-05-11T03:19:13.446Z,0.57
2023-05-11T03:20:13.916Z,0.57
2023-05-11T03:21:13.566Z,0.57
2023-05-11T03:22:13.624Z,0.55
2023-05-11T03:23:13.703Z,0.57
2023-05-11T03:24:13.722Z,0.56
2023-05-11T03:25:13.773Z,0.57
2023-05-11T03:26:13.857Z,0.56
2023-05-11T03:27:13.893Z,0.57
2023-05-11T03:28:13.938Z,0.56
2023-05-11T03:29:14.007Z,0.56
2023-05-11T03:30:14.071Z,0.56
2023-05-11T03:31:14.159Z,0.57
2023-05-11T03:32:14.232Z,0.57
2023-05-11T03:33:14.283Z,0.56
2023-05-11T03:34:14.271Z,0.56
2023-05-11T03:35:14.349Z,0.57
2023-05-11T03:36:14.397Z,0.56
2023-05-11T03:37:14.479Z,0.57
2023-05-11T03:38:14.524Z,0.57
2023-05-11T03:39:14.599Z,0.56
2023-05-11T03:40:14.705Z,0.55
2023-05-11T03:41:14.718Z,0.56
2023-05-11T03:42:14.770Z,0.55
2023-05-11T03:43:14.857Z,0.56
2023-05-11T03:44:14.926Z,0.55
2023-05-11T03:45:14.966Z,0.55
2023-05-11T03:46:15.061Z,0.56
2023-05-11T03:47:15.093Z,0.55
2023-05-11T03:48:15.173Z,0.55
2023-05-11T03:49:15.209Z,0.56
2023-05-11T03:50:15.517Z,0.55
2023-05-11T03:51:15.327Z,0.54
2023-05-11T03:52:15.439Z,0.55
2023-05-11T03:53:15.444Z,0.54
2023-05-11T03:54:15.516Z,0.55
2023-05-11T03:55:15.598Z,0.55
2023-05-11T03:56:15.609Z,0.55
2023-05-11T03:57:15.699Z,0.54
2023-05-11T03:58:15.787Z,0.55
2023-05-11T03:59:15.847Z,0.55
2023-05-11T04:00:15.945Z,0.56
2023-05-11T04:01:15.989Z,0.55
2023-05-11T04:02:16.100Z,0.55
2023-05-11T04:03:16.180Z,0.54
2023-05-11T04:04:16.217Z,0.54
2023-05-11T04:05:16.459Z,0.55
2023-05-11T04:06:16.306Z,0.53
2023-05-11T04:07:16.330Z,0.53
2023-05-11T04:08:16.425Z,0.54
2023-05-11T04:09:16.473Z,0.54
2023-05-11T04:10:16.692Z,0.55
2023-05-11T04:11:16.629Z,0.55
2023-05-11T04:12:16.665Z,0.53
2023-05-11T04:13:16.730Z,0.54
2023-05-11T04:14:16.797Z,0.54
2023-05-11T04:15:16.856Z,0.54
2023-05-11T04:16:16.961Z,0.55
2023-05-11T04:17:16.996Z,0.53
2023-05-11T04:18:17.167Z,0.53
2023-05-11T04:19:17.115Z,0.54
2023-05-11T04:20:17.351Z,0.54
2023-05-11T04:21:17.199Z,0.54
2023-05-11T04:22:17.280Z,0.53
2023-05-11T04:23:17.335Z,0.53
2023-05-11T04:24:17.392Z,0.54
2023-05-11T04:25:17.436Z,0.53
2023-05-11T04:26:17.512Z,0.54
2023-05-11T04:27:17.527Z,0.54
2023-05-11T04:28:17.561Z,0.53
2023-05-11T04:29:17.653Z,0.53
2023-05-11T04:30:18.095Z,0.53
2023-05-11T04:31:17.788Z,0.54
2023-05-11T04:32:17.815Z,0.53
2023-05-11T04:33:17.932Z,0.52
2023-05-11T04:34:17.922Z,0.54
2023-05-11T04:35:18.496Z,0.51
2023-05-11T04:36:18.098Z,0.54
2023-05-11T04:37:18.107Z,0.52
2023-05-11T04:38:18.141Z,0.53
2023-05-11T04:39:18.162Z,0.53
2023-05-11T04:40:18.658Z,0.52
2023-05-11T04:41:18.284Z,0.53
2023-05-11T04:42:18.347Z,0.52
2023-05-11T04:43:18.421Z,0.51
2023-05-11T04:44:18.461Z,0.51
2023-05-11T04:45:18.936Z,0.53
2023-05-11T04:46:18.585Z,0.53
2023-05-11T04:47:18.623Z,0.53
2023-05-11T04:48:20.717Z,0.51
2023-05-11T04:49:18.691Z,0.52
2023-05-11T04:50:18.928Z,0.52
2023-05-11T04:51:18.788Z,0.52
2023-05-11T04:52:18.827Z,0.51
2023-05-11T04:53:18.937Z,0.52
2023-05-11T04:54:18.904Z,0.52
2023-05-11T04:55:18.954Z,0.52
2023-05-11T04:56:18.978Z,0.51
2023-05-11T04:57:19.058Z,0.52
2023-05-11T04:58:19.072Z,0.51
2023-05-11T04:59:19.117Z,0.51
2023-05-11T05:00:19.750Z,0.51
2023-05-11T05:01:19.259Z,0.51
2023-05-11T05:02:19.378Z,0.51
2023-05-11T05:03:19.316Z,0.51
2023-05-11T05:04:19.521Z,0.52
2023-05-11T05:05:19.468Z,0.52
2023-05-11T05:06:19.378Z,0.51
2023-05-11T05:07:19.468Z,0.52
2023-05-11T05:08:19.490Z,0.52
2023-05-11T05:09:19.515Z,0.51
2023-05-11T05:10:19.807Z,0.52
2023-05-11T05:11:19.588Z,0.52
2023-05-11T05:12:19.669Z,0.52
2023-05-11T05:13:19.721Z,0.51
2023-05-11T05:14:19.759Z,0.51
2023-05-11T05:15:19.814Z,0.51
2023-05-11T05:16:19.935Z,0.51
2023-05-11T05:17:19.926Z,0.50
2023-05-11T05:18:20.024Z,0.51
2023-05-11T05:19:20.045Z,0.51
2023-05-11T05:20:20.710Z,0.51
2023-05-11T05:21:20.162Z,0.52
2023-05-11T05:22:20.158Z,0.51
2023-05-11T05:23:20.365Z,0.51
2023-05-11T05:24:20.289Z,0.51
2023-05-11T05:25:20.483Z,0.52
2023-05-11T05:26:20.351Z,0.51
2023-05-11T05:27:20.398Z,0.52
2023-05-11T05:28:20.444Z,0.52
2023-05-11T05:29:20.462Z,0.51
2023-05-11T05:30:20.779Z,0.52
2023-05-11T05:31:20.705Z,0.53
2023-05-11T05:32:20.652Z,0.52
2023-05-11T05:33:20.694Z,0.52
2023-05-11T05:34:20.705Z,0.52
2023-05-11T05:35:20.966Z,0.51
2023-05-11T05:36:20.774Z,0.51
2023-05-11T05:37:20.841Z,0.52
2023-05-11T05:38:20.883Z,0.52
2023-05-11T05:39:20.883Z,0.53
2023-05-11T05:40:21.161Z,0.52
2023-05-11T05:41:20.942Z,0.52
2023-05-11T05:42:20.987Z,0.52
2023-05-11T05:43:21.178Z,0.53
2023-05-11T05:44:21.096Z,0.53
2023-05-11T05:45:21.143Z,0.52
2023-05-11T05:46:21.299Z,0.53
2023-05-11T05:47:21.261Z,0.52
2023-05-11T05:48:21.224Z,0.53
2023-05-11T05:49:21.268Z,0.51
2023-05-11T05:50:21.490Z,0.52
2023-05-11T05:51:21.327Z,0.51
2023-05-11T05:52:21.342Z,0.51
2023-05-11T05:53:21.396Z,0.52
2023-05-11T05:54:21.408Z,0.52
2023-05-11T05:55:21.514Z,0.53
2023-05-11T05:56:21.534Z,0.52
2023-05-11T05:57:21.533Z,0.51
2023-05-11T05:58:21.595Z,0.52
2023-05-11T05:59:21.594Z,0.52
2023-05-11T06:00:21.996Z,0.51
2023-05-11T06:01:21.678Z,0.53
2023-05-11T06:02:21.852Z,0.52
2023-05-11T06:03:21.826Z,0.53
2023-05-11T06:04:21.837Z,0.50
2023-05-11T06:05:21.989Z,0.51
2023-05-11T06:06:21.764Z,0.51
2023-05-11T06:07:21.810Z,0.50
2023-05-11T06:08:21.864Z,0.51
2023-05-11T06:09:21.856Z,0.51
2023-05-11T06:10:21.981Z,0.51
2023-05-11T06:11:21.948Z,0.51
2023-05-11T06:12:21.937Z,0.51
2023-05-11T06:13:22.003Z,0.51
2023-05-11T06:14:22.038Z,0.51
2023-05-11T06:15:22.515Z,0.51
2023-05-11T06:16:22.129Z,0.51
2023-05-11T06:17:22.082Z,0.51
2023-05-11T06:18:22.133Z,0.50
2023-05-11T06:19:22.089Z,0.51
2023-05-11T06:20:22.135Z,0.50
2023-05-11T06:21:22.131Z,0.53
2023-05-11T06:22:22.169Z,0.53
2023-05-11T06:23:22.191Z,0.54
2023-05-11T06:24:22.194Z,0.54
2023-05-11T06:25:22.546Z,0.54
2023-05-11T06:26:22.241Z,0.55
2023-05-11T06:27:22.252Z,0.55
2023-05-11T06:28:22.282Z,0.55
2023-05-11T06:29:22.394Z,0.54
2023-05-11T06:30:22.512Z,0.54
2023-05-11T06:31:22.401Z,0.53
2023-05-11T06:32:22.467Z,0.54
2023-05-11T06:33:22.443Z,0.53
2023-05-11T06:34:22.440Z,0.54
2023-05-11T06:35:22.505Z,0.53
2023-05-11T06:36:22.491Z,0.54
2023-05-11T06:37:22.533Z,0.52
2023-05-11T06:38:22.560Z,0.53
2023-05-11T06:39:22.560Z,0.52
2023-05-11T06:40:23.036Z,0.53
2023-05-11T06:41:22.655Z,0.54
2023-05-11T06:42:22.656Z,0.54
2023-05-11T06:43:22.655Z,0.54
2023-05-11T06:44:22.675Z,0.54
2023-05-11T06:45:22.781Z,0.54
2023-05-11T06:46:22.811Z,0.54
2023-05-11T06:47:22.795Z,0.54
2023-05-11T06:48:22.777Z,0.54
2023-05-11T06:49:22.811Z,0.53
2023-05-11T06:50:25.089Z,0.53
2023-05-11T06:51:22.789Z,0.54
2023-05-11T06:52:22.837Z,0.54
2023-05-11T06:53:22.796Z,0.54
2023-05-11T06:54:22.786Z,0.54
2023-05-11T06:55:22.780Z,0.54
2023-05-11T06:56:22.794Z,0.54
2023-05-11T06:57:22.782Z,0.55
2023-05-11T06:58:22.792Z,0.55
2023-05-11T06:59:22.814Z,0.55
2023-05-11T07:00:22.751Z,0.55
2023-05-11T07:01:22.783Z,0.55
2023-05-11T07:02:22.758Z,0.54
2023-05-11T07:03:22.732Z,0.53
2023-05-11T07:04:22.775Z,0.53
2023-05-11T07:05:22.725Z,0.52
2023-05-11T07:06:23.051Z,0.53
2023-05-11T07:07:22.740Z,0.52
2023-05-11T07:08:22.677Z,0.52
2023-05-11T07:09:22.703Z,0.53
2023-05-11T07:10:22.694Z,0.52
2023-05-11T07:11:23.067Z,0.53
2023-05-11T07:12:22.671Z,0.52
2023-05-11T07:13:22.642Z,0.52
2023-05-11T07:14:22.656Z,0.52
2023-05-11T07:15:22.647Z,0.53
2023-05-11T07:16:23.050Z,0.53
2023-05-11T07:17:22.696Z,0.51
2023-05-11T07:18:22.698Z,0.52
2023-05-11T07:19:22.607Z,0.51
2023-05-11T07:20:22.624Z,0.52
2023-05-11T07:21:22.638Z,0.52
2023-05-11T07:22:23.567Z,0.52
2023-05-11T07:23:22.612Z,0.51
2023-05-11T07:24:22.591Z,0.51
2023-05-11T07:25:22.597Z,0.51
2023-05-11T07:26:23.076Z,0.52
2023-05-11T07:27:22.585Z,0.52
2023-05-11T07:28:22.522Z,0.52
2023-05-11T07:29:22.541Z,0.51
2023-05-11T07:30:22.821Z,0.51
2023-05-11T07:31:23.094Z,0.51
2023-05-11T07:32:22.637Z,0.51
2023-05-11T07:33:22.568Z,0.51
2023-05-11T07:34:22.501Z,0.51
2023-05-11T07:35:24.200Z,0.51
2023-05-11T07:36:23.052Z,0.51
2023-05-11T07:37:22.632Z,0.51
2023-05-11T07:38:22.585Z,0.51
2023-05-11T07:39:22.622Z,0.51
2023-05-11T07:40:22.637Z,0.51
2023-05-11T07:41:23.078Z,0.51
2023-05-11T07:42:22.665Z,0.51
2023-05-11T07:43:22.666Z,0.51
2023-05-11T07:44:22.665Z,0.52
2023-05-11T07:45:22.644Z,0.51
2023-05-11T07:46:23.118Z,0.51
2023-05-11T07:47:22.747Z,0.52
2023-05-11T07:48:22.702Z,0.52
2023-05-11T07:49:31.094Z,0.55
2023-05-11T07:50:24.612Z,0.55
2023-05-11T07:51:23.058Z,0.55
2023-05-11T07:52:22.678Z,0.57
2023-05-11T07:53:22.659Z,0.60
2023-05-11T07:54:22.672Z,0.58
2023-05-11T07:55:22.678Z,0.53
2023-05-11T07:56:23.036Z,0.48
2023-05-11T07:57:22.774Z,0.50
2023-05-11T07:58:22.827Z,0.50
2023-05-11T07:59:22.873Z,0.49
2023-05-11T08:00:22.930Z,0.50
2023-05-11T08:01:23.032Z,0.50
2023-05-11T08:02:23.064Z,0.50
2023-05-11T08:03:23.193Z,0.51
2023-05-11T08:04:23.146Z,0.49
2023-05-11T08:05:23.221Z,0.50
2023-05-11T08:06:23.213Z,0.50
2023-05-11T08:07:23.190Z,0.51
2023-05-11T08:08:23.205Z,0.50
2023-05-11T08:09:23.250Z,0.52
2023-05-11T08:10:23.280Z,0.51
2023-05-11T08:11:23.255Z,0.55
2023-05-11T08:12:23.289Z,0.52
2023-05-11T08:13:23.245Z,0.50
2023-05-11T08:14:23.318Z,0.50
2023-05-11T08:15:23.247Z,0.51
2023-05-11T08:16:23.602Z,0.59
2023-05-11T08:17:23.323Z,0.64
2023-05-11T08:18:23.394Z,0.71
2023-05-11T08:19:23.454Z,0.74
2023-05-11T08:20:23.610Z,0.81
2023-05-11T08:21:23.569Z,0.91
2023-05-11T08:22:23.618Z,0.99
2023-05-11T08:23:23.637Z,1.01
2023-05-11T08:24:23.751Z,1.08
2023-05-11T08:25:23.726Z,1.14
2023-05-11T08:26:23.749Z,1.18
2023-05-11T08:27:23.781Z,1.16
2023-05-11T08:28:23.772Z,1.15
2023-05-11T08:29:23.787Z,1.23
2023-05-11T08:30:23.819Z,1.25
2023-05-11T08:31:23.941Z,1.34
2023-05-11T08:32:23.908Z,1.00
2023-05-11T08:33:36.490Z,0.63
2023-05-11T08:34:25.018Z,0.53
2023-05-11T08:35:23.956Z,0.41
2023-05-11T08:36:24.074Z,0.34
2023-05-11T08:37:23.851Z,0.34
2023-05-11T08:38:23.822Z,0.34
2023-05-11T08:39:43.238Z,0.34
2023-05-11T08:40:24.853Z,0.34
2023-05-11T08:41:23.819Z,0.36
2023-05-11T08:42:23.815Z,0.40
2023-05-11T08:43:23.820Z,0.50
2023-05-11T08:44:23.766Z,0.72
2023-05-11T08:45:23.775Z,0.81
2023-05-11T08:46:24.088Z,0.93
2023-05-11T08:47:24.089Z,1.08
2023-05-11T08:48:23.772Z,1.25
2023-05-11T08:49:23.750Z,1.39
2023-05-11T08:50:23.785Z,1.53
2023-05-11T08:51:23.768Z,1.74
2023-05-11T08:52:23.740Z,1.87
2023-05-11T08:53:23.783Z,2.19
2023-05-11T08:54:23.781Z,2.31
2023-05-11T08:55:23.820Z,2.56
2023-05-11T08:56:24.110Z,2.61
2023-05-11T08:57:23.870Z,2.55
2023-05-11T08:58:23.924Z,1.79
2023-05-11T08:59:24.095Z,1.12
2023-05-11T09:00:24.043Z,0.98
2023-05-11T09:01:24.094Z,1.04
2023-05-11T09:02:24.136Z,1.14
2023-05-11T09:03:24.147Z,1.24
2023-05-11T09:04:24.191Z,1.31
2023-05-11T09:05:24.298Z,1.49
2023-05-11T09:06:24.558Z,1.73
2023-05-11T09:07:24.377Z,1.81
2023-05-11T09:08:24.393Z,1.94
2023-05-11T09:09:24.439Z,2.09
2023-05-11T09:10:24.499Z,2.31
2023-05-11T09:11:24.485Z,2.41
2023-05-11T09:12:24.522Z,2.45
2023-05-11T09:13:24.605Z,2.53
2023-05-11T09:14:27.628Z,2.68
2023-05-11T09:15:24.591Z,2.99
2023-05-11T09:16:36.788Z,3.12
2023-05-11T09:17:25.639Z,3.13
2023-05-11T09:18:24.563Z,3.17
2023-05-11T09:19:24.523Z,3.30
2023-05-11T09:20:24.530Z,3.53
2023-05-11T09:21:24.602Z,3.89
2023-05-11T09:22:24.540Z,4.01
2023-05-11T09:23:24.525Z,4.19
2023-05-11T09:24:24.511Z,4.30
2023-05-11T09:25:24.478Z,4.42
2023-05-11T09:26:24.589Z,4.56
2023-05-11T09:27:24.503Z,4.70
2023-05-11T09:28:25.923Z,4.78
2023-05-11T09:30:25.490Z,5.08
2023-05-11T09:31:24.512Z,5.14
2023-05-11T09:32:24.544Z,5.27
2023-05-11T09:33:24.466Z,5.48
2023-05-11T09:34:24.429Z,6.03
2023-05-11T09:35:24.465Z,6.27
2023-05-11T09:36:24.629Z,6.47
2023-05-11T09:37:24.443Z,6.74
2023-05-11T09:38:24.425Z,6.83
2023-05-11T09:39:36.329Z,7.09
2023-05-11T09:40:27.601Z,7.11
2023-05-11T09:41:24.375Z,7.20
2023-05-11T09:42:24.601Z,7.30
2023-05-11T09:43:24.504Z,7.63
2023-05-11T09:44:24.413Z,8.45
2023-05-11T09:45:24.398Z,8.53
2023-05-11T09:46:24.429Z,8.50
2023-05-11T09:47:24.366Z,8.70
2023-05-11T09:48:24.383Z,8.47
2023-05-11T09:49:24.402Z,8.04
2023-05-11T09:50:26.831Z,7.32
2023-05-11T09:51:24.494Z,7.34
2023-05-11T09:52:24.616Z,7.51
2023-05-11T09:53:26.580Z,7.59
2023-05-11T09:54:24.598Z,7.91
2023-05-11T09:55:24.576Z,8.07
2023-05-11T09:56:24.585Z,7.56
2023-05-11T09:57:25.091Z,4.79
2023-05-11T09:58:24.657Z,6.72
2023-05-11T09:59:26.246Z,7.62
2023-05-11T10:00:24.717Z,5.35
2023-05-11T10:01:24.786Z,4.71
2023-05-11T10:02:25.204Z,3.70
2023-05-11T10:03:24.926Z,2.90
2023-05-11T10:04:24.988Z,2.45
2023-05-11T10:05:24.940Z,2.08
2023-05-11T10:06:25.006Z,1.97
2023-05-11T10:07:25.133Z,2.05
2023-05-11T10:08:25.151Z,2.31
2023-05-11T10:09:25.242Z,2.53
2023-05-11T10:10:25.259Z,2.97
2023-05-11T10:11:26.408Z,3.34
2023-05-11T10:12:25.628Z,3.64
2023-05-11T10:13:25.380Z,3.82
2023-05-11T10:14:25.413Z,4.12
2023-05-11T10:15:25.406Z,4.55
2023-05-11T10:16:25.467Z,4.97
2023-05-11T10:17:25.629Z,5.43
2023-05-11T10:18:25.555Z,6.06
2023-05-11T10:19:25.500Z,6.43
2023-05-11T10:20:25.502Z,6.70
2023-05-11T10:21:25.491Z,7.05
2023-05-11T10:22:25.624Z,7.47
2023-05-11T10:23:25.473Z,7.90
2023-05-11T10:24:25.507Z,8.58
2023-05-11T10:25:25.568Z,9.23
2023-05-11T10:26:25.590Z,9.36
2023-05-11T10:27:26.122Z,8.93
2023-05-11T10:28:25.760Z,7.87
2023-05-11T10:29:25.787Z,8.01
2023-05-11T10:30:25.888Z,8.65
2023-05-11T10:31:25.979Z,9.52
2023-05-11T10:32:26.174Z,10.15
2023-05-11T10:33:26.017Z,10.42
2023-05-11T10:34:26.083Z,11.18
2023-05-11T10:35:26.154Z,11.37
2023-05-11T10:36:26.225Z,11.98
2023-05-11T10:37:26.609Z,12.76
2023-05-11T10:38:26.281Z,13.56
2023-05-11T10:39:26.345Z,14.75
2023-05-11T10:40:26.374Z,14.81
2023-05-11T10:41:26.457Z,15.31
2023-05-11T10:42:26.634Z,14.50
2023-05-11T10:43:26.628Z,14.69
2023-05-11T10:44:26.604Z,15.19
2023-05-11T10:45:26.601Z,15.40
2023-05-11T10:46:28.169Z,15.48
2023-05-11T10:47:27.159Z,15.44
2023-05-11T10:48:26.691Z,15.13
2023-05-11T10:49:26.681Z,15.09
2023-05-11T10:50:26.660Z,15.17
2023-05-11T10:51:26.635Z,15.25
2023-05-11T10:52:28.772Z,15.91
2023-05-11T10:53:26.653Z,15.93
2023-05-11T10:54:26.627Z,15.92
2023-05-11T10:55:26.618Z,15.73
2023-05-11T10:56:26.633Z,14.92
2023-05-11T10:57:26.611Z,15.23
2023-05-11T10:58:26.628Z,14.55
2023-05-11T10:59:26.630Z,14.38
2023-05-11T11:00:26.628Z,13.71
2023-05-11T11:01:26.584Z,13.53
2023-05-11T11:02:26.582Z,13.64
2023-05-11T11:03:26.578Z,13.33
2023-05-11T11:04:28.196Z,13.22
2023-05-11T11:05:26.581Z,13.24
2023-05-11T11:06:26.520Z,13.23
2023-05-11T11:07:26.657Z,13.30
2023-05-11T11:08:26.504Z,13.09
2023-05-11T11:09:26.521Z,12.66
2023-05-11T11:10:26.530Z,12.30
2023-05-11T11:11:26.539Z,12.24
2023-05-11T11:12:26.635Z,12.23
2023-05-11T11:13:26.511Z,12.02
2023-05-11T11:14:26.468Z,11.63
2023-05-11T11:15:26.467Z,11.59
2023-05-11T11:16:26.491Z,11.54
2023-05-11T11:17:26.732Z,11.61
2023-05-11T11:18:26.554Z,11.24
2023-05-11T11:19:26.440Z,11.01
2023-05-11T11:20:26.456Z,11.19
2023-05-11T11:21:26.464Z,10.91
2023-05-11T11:22:26.428Z,10.91
2023-05-11T11:23:26.479Z,10.81
2023-05-11T11:24:26.454Z,11.17
2023-05-11T11:25:26.426Z,10.77
2023-05-11T11:26:26.403Z,10.75
2023-05-11T11:27:29.458Z,10.94
2023-05-11T11:28:26.380Z,10.96
2023-05-11T11:29:26.393Z,10.96
2023-05-11T11:30:26.363Z,10.74
2023-05-11T11:31:26.697Z,10.64
2023-05-11T11:32:26.783Z,10.73
2023-05-11T11:33:26.353Z,10.58
2023-05-11T11:34:26.356Z,10.34
2023-05-11T11:35:26.318Z,10.39
2023-05-11T11:36:26.365Z,10.32
2023-05-11T11:37:26.735Z,10.11
2023-05-11T11:38:28.672Z,10.18
2023-05-11T11:39:26.326Z,10.39
2023-05-11T11:40:27.421Z,9.53
2023-05-11T11:41:26.305Z,9.53
2023-05-11T11:42:26.309Z,9.11
2023-05-11T11:43:26.305Z,9.53
2023-05-11T11:44:26.286Z,9.58
2023-05-11T11:45:26.332Z,9.58
2023-05-11T11:46:26.326Z,9.54
2023-05-11T11:47:26.543Z,9.54
2023-05-11T11:48:26.283Z,9.51
2023-05-11T11:49:26.258Z,9.25
2023-05-11T11:50:26.259Z,9.29
2023-05-11T11:51:26.256Z,9.23
2023-05-11T11:52:26.650Z,8.97
2023-05-11T11:53:26.248Z,8.85
2023-05-11T11:54:26.218Z,8.86
2023-05-11T11:55:26.240Z,8.99
2023-05-11T11:56:26.256Z,8.80
2023-05-11T11:57:26.666Z,8.82
2023-05-11T11:58:26.212Z,8.98
2023-05-11T11:59:26.190Z,8.88
2023-05-11T12:00:26.192Z,8.61
2023-05-11T12:01:26.201Z,8.78
2023-05-11T12:02:26.819Z,8.61
2023-05-11T12:03:26.359Z,8.63
2023-05-11T12:04:26.304Z,8.50
2023-05-11T12:05:26.290Z,8.58
2023-05-11T12:06:26.884Z,8.45
2023-05-11T12:07:26.625Z,8.44
2023-05-11T12:08:26.165Z,8.42
2023-05-11T12:09:26.163Z,8.32
2023-05-11T12:10:26.160Z,8.31
2023-05-11T12:11:26.102Z,8.31
2023-05-11T12:12:26.124Z,8.26
2023-05-11T12:13:26.144Z,8.29
2023-05-11T12:14:26.069Z,8.11
2023-05-11T12:15:26.099Z,8.02
2023-05-11T12:16:26.119Z,8.09
2023-05-11T12:17:26.150Z,8.02
2023-05-11T12:18:26.125Z,7.83
2023-05-11T12:19:26.090Z,7.86
2023-05-11T12:20:26.099Z,7.88
2023-05-11T12:21:26.054Z,7.82
2023-05-11T12:22:26.156Z,7.71
2023-05-11T12:23:26.051Z,7.77
2023-05-11T12:24:26.021Z,7.65
2023-05-11T12:25:26.034Z,7.73
2023-05-11T12:26:26.057Z,7.58
2023-05-11T12:27:26.049Z,7.60
2023-05-11T12:28:26.007Z,7.46
2023-05-11T12:29:26.013Z,7.51
2023-05-11T12:30:25.998Z,7.51
2023-05-11T12:31:26.017Z,7.55
2023-05-11T12:32:26.197Z,7.26
2023-05-11T12:33:25.960Z,7.40
2023-05-11T12:34:25.955Z,7.30
2023-05-11T12:35:25.964Z,7.22
2023-05-11T12:36:25.930Z,4.46
2023-05-11T12:37:26.174Z,3.89
2023-05-11T12:38:25.961Z,1.89
2023-05-11T12:39:25.946Z,1.09
2023-05-11T12:40:25.926Z,0.96
2023-05-11T12:41:25.948Z,0.96
2023-05-11T12:42:26.180Z,0.87
2023-05-11T12:43:25.910Z,0.91
2023-05-11T12:44:25.928Z,0.81
2023-05-11T12:45:25.907Z,0.83
2023-05-11T12:46:25.946Z,0.82
2023-05-11T12:47:25.900Z,0.54
2023-05-11T12:48:25.901Z,0.59
2023-05-11T12:49:26.982Z,0.65
2023-05-11T12:50:25.866Z,0.80
2023-05-11T12:51:25.961Z,0.72
2023-05-11T12:52:25.861Z,0.57
2023-05-11T12:53:25.863Z,0.51
2023-05-11T12:54:25.806Z,0.49
2023-05-11T12:55:25.836Z,0.50
2023-05-11T12:56:25.849Z,0.58
2023-05-11T12:57:25.832Z,0.53
2023-05-11T12:58:26.223Z,0.51
2023-05-11T12:59:25.842Z,0.50
2023-05-11T13:00:25.788Z,0.50
2023-05-11T13:01:32.792Z,0.50
2023-05-11T13:02:25.809Z,0.50
2023-05-11T13:03:26.335Z,0.51
2023-05-11T13:04:25.732Z,0.51
2023-05-11T13:05:25.772Z,0.50
2023-05-11T13:06:25.761Z,0.49
2023-05-11T13:07:25.765Z,0.51
2023-05-11T13:08:25.745Z,0.53
2023-05-11T13:09:25.752Z,0.61
2023-05-11T13:10:25.713Z,0.70
2023-05-11T13:11:25.856Z,0.82
2023-05-11T13:12:25.716Z,0.91
2023-05-11T13:13:25.730Z,1.02
2023-05-11T13:14:25.683Z,1.05
2023-05-11T13:15:25.716Z,1.08
2023-05-11T13:16:25.752Z,1.14
2023-05-11T13:17:25.690Z,1.15